Airfield :
LOGIN :

Register | Disclaimer

   EN    FR    IT 

 










Legend :    VFR   Marginal VFR   IFR   Intensive IFR   Very Intensive IFR
Visi :
Ceiling :
>= 8 km
>= 3000ft
5 to 8 km
1000 to 3000 ft
1500m to 5 km
500 to 1000 ft
800 to 1500m
200 to 500 ft
< 800m
< 200 ft
Symbols :   Thunderstorms  Fog  Heavy snow  Heavy precipitations  Wind > 20 kt
SIGMETs :     Misc.  Thunderstorms  Icing  Turbulence  Mountain Waves  Volcanic Ashes






- Airport Elevation : 327 ft
- IATA code : BHX


EGBB - Birmingham

CURRENT METAR :
  • 170650Z 30004KT 5000 BR BKN007 07/07 Q1009

EXPIRED METARs :
  • 170620Z 29004KT 7000 BKN006 07/07 Q1009
  • 170550Z 30003KT 6000 BKN006 07/07 Q1009
  • 170520Z 29003KT 6000 BKN012 OVC049 07/06 Q1008
  • 170450Z 29003KT 7000 BKN028 OVC049 07/06 Q1008
  • 170420Z 28003KT 6000 BKN028 07/06 Q1008

TAF TAF EGBB
Valid from the 17 at 06:00 until the 18 at 06:00 UTC


170506Z 1706/1806 27004KT 9999 BKN030
TEMPO 1706/1709 8000 BKN009
PROB30
TEMPO 1706/1709 2000 DZ BKN004
TEMPO 1709/1723 6000 -RA FEW004 BKN009
PROB30
TEMPO 1709/1712 2000 DZ BR BKN004
BECMG 1710/1713 36010KT
PROB30 1719/1724 2000 BR BKN004
ATIS : +44 121 780 0910



MET'MAP, your aeronautical weather chart ! - Copyright ORBIFLY December 2007 - Disclaimer

ORBIFLY MET'MAP TEAM :

Programming & Development : Alexandra Zaïnal
Concept & Development : Baudouin d'Aumeries
Co-Development & Prog : Marc-Olivier Méhu
Technical & hardware support : Manuel Goepfert

Contact : metmap@orbifly.com




SOURCES & CREDITS :

   NOAA